Time;durP1;ratioP1;P1;durP2;ratioP2;P2;SDS_P1;SDS_P2;PMS_P1;PMS_P2;Temp;Humidity;BMP_temperature;BMP_pressure;BME280_temperature;BME280_humidity;BME280_pressure;Samples;Min_cycle;Max_cycle;Signal;HPM_P1;HPM_P2
2023/04/17 00:02:01;;;;;;;9.30;5.32;;;8.90;99.90;;;;;;4763601;30;20075;-72
2023/04/17 00:04:29;;;;;;;8.88;5.82;;;8.90;99.90;;;;;;4782268;30;20439;-73
2023/04/17 00:06:58;;;;;;;8.93;5.32;;;8.90;99.90;;;;;;4768952;30;20054;-72
2023/04/17 00:09:25;;;;;;;8.07;5.20;;;8.90;99.90;;;;;;4752269;30;20062;-72
2023/04/17 00:11:53;;;;;;;8.88;5.60;;;8.90;99.90;;;;;;4762701;30;20246;-71
2023/04/17 00:14:20;;;;;;;7.93;5.35;;;8.90;99.90;;;;;;4764636;30;20056;-72
2023/04/17 00:16:48;;;;;;;9.30;5.60;;;8.80;99.90;;;;;;4778488;30;20093;-70
2023/04/17 00:19:15;;;;;;;7.68;5.88;;;8.90;99.90;;;;;;4767947;30;20073;-70
2023/04/17 00:21:42;;;;;;;8.27;5.78;;;8.90;99.90;;;;;;4766824;30;20495;-71
2023/04/17 00:24:11;;;;;;;9.98;6.20;;;8.90;99.90;;;;;;4780577;30;20056;-69
2023/04/17 00:26:39;;;;;;;9.73;6.20;;;8.90;99.90;;;;;;4775482;30;20484;-68
2023/04/17 00:29:06;;;;;;;7.55;5.35;;;8.90;99.90;;;;;;4768084;30;20058;-67
2023/04/17 00:31:34;;;;;;;8.48;5.85;;;8.80;99.90;;;;;;4767210;30;20047;-69
2023/04/17 00:34:01;;;;;;;10.13;6.60;;;8.90;99.90;;;;;;4768171;30;20051;-68
2023/04/17 00:36:31;;;;;;;9.70;5.82;;;8.90;99.90;;;;;;4765975;30;20071;-68
2023/04/17 00:38:59;;;;;;;9.52;6.88;;;8.80;99.90;;;;;;4762167;30;20048;-68
2023/04/17 00:41:26;;;;;;;9.25;6.00;;;8.80;99.90;;;;;;4750681;30;20048;-67
2023/04/17 00:43:54;;;;;;;8.57;5.60;;;8.80;99.90;;;;;;4764833;30;20097;-70
2023/04/17 00:46:21;;;;;;;9.55;5.78;;;8.80;99.90;;;;;;4753895;30;20044;-67
2023/04/17 00:48:48;;;;;;;11.98;6.03;;;8.80;99.90;;;;;;4751739;30;20499;-67
2023/04/17 00:51:16;;;;;;;8.15;5.45;;;8.90;99.90;;;;;;4767570;30;20052;-69
2023/04/17 00:53:44;;;;;;;9.95;5.75;;;8.80;99.90;;;;;;4781344;30;20051;-68
2023/04/17 00:56:12;;;;;;;8.35;5.50;;;8.80;99.90;;;;;;4766333;30;20060;-68
2023/04/17 00:58:39;;;;;;;8.80;5.93;;;8.80;99.90;;;;;;4763016;30;20067;-67
2023/04/17 01:01:07;;;;;;;8.73;6.25;;;8.80;99.90;;;;;;4766619;30;20515;-67
2023/04/17 01:03:35;;;;;;;8.77;6.03;;;8.80;99.90;;;;;;4781711;30;20222;-69
2023/04/17 01:06:02;;;;;;;8.50;5.65;;;8.80;99.90;;;;;;4766093;30;20135;-68
2023/04/17 01:08:41;;;;;;;9.25;6.20;;;8.80;99.90;;;;;;4781890;30;20043;-68
2023/04/17 01:11:09;;;;;;;7.93;5.97;;;8.80;99.90;;;;;;4759227;30;20461;-68
2023/04/17 01:13:44;;;;;;;9.82;6.65;;;8.70;99.90;;;;;;4766855;30;20054;-67
2023/04/17 01:16:12;;;;;;;9.40;6.00;;;8.70;99.90;;;;;;4765514;30;20075;-68
2023/04/17 01:18:40;;;;;;;9.93;6.85;;;8.70;99.90;;;;;;4766161;30;20043;-68
2023/04/17 01:21:07;;;;;;;10.10;7.22;;;8.70;99.90;;;;;;4766446;30;20134;-67
2023/04/17 01:23:45;;;;;;;9.90;6.93;;;8.70;99.90;;;;;;4766417;30;20044;-68
2023/04/17 01:26:17;;;;;;;9.02;6.68;;;8.70;99.90;;;;;;4763100;30;20052;-67
2023/04/17 01:28:53;;;;;;;10.43;6.00;;;8.70;99.90;;;;;;4736287;30;20407;-69
2023/04/17 01:31:21;;;;;;;9.68;6.80;;;8.70;99.90;;;;;;4756395;30;20116;-67
2023/04/17 01:33:50;;;;;;;9.77;6.38;;;8.70;99.90;;;;;;4761590;30;20098;-67
2023/04/17 01:36:18;;;;;;;10.35;7.22;;;8.70;99.90;;;;;;4762480;30;20518;-67
2023/04/17 01:38:45;;;;;;;10.85;6.63;;;8.70;99.90;;;;;;4741024;30;20508;-69
2023/04/17 01:41:12;;;;;;;13.48;8.27;;;8.70;99.90;;;;;;4753911;30;20048;-68
2023/04/17 01:43:42;;;;;;;10.68;6.65;;;8.70;99.90;;;;;;4765684;30;20059;-69
2023/04/17 01:46:10;;;;;;;10.52;6.97;;;8.70;99.90;;;;;;4766872;30;20105;-68
2023/04/17 01:48:38;;;;;;;10.35;7.22;;;8.70;99.90;;;;;;4751417;30;20503;-68
2023/04/17 01:51:05;;;;;;;9.98;6.75;;;8.70;99.90;;;;;;4759179;30;20044;-69
2023/04/17 01:53:33;;;;;;;10.45;7.13;;;8.70;99.90;;;;;;4753235;30;20047;-68
2023/04/17 01:56:00;;;;;;;10.05;7.13;;;8.70;99.90;;;;;;4769395;30;20487;-68
2023/04/17 01:58:29;;;;;;;9.40;7.18;;;8.70;99.90;;;;;;4773742;30;20526;-67
2023/04/17 02:00:58;;;;;;;11.00;7.40;;;8.70;99.90;;;;;;4777588;30;20043;-67
2023/04/17 02:03:25;;;;;;;9.98;7.00;;;8.70;99.90;;;;;;4763382;30;20546;-69
2023/04/17 02:05:53;;;;;;;10.48;6.40;;;8.70;99.90;;;;;;4753922;30;20543;-67
2023/04/17 02:08:20;;;;;;;10.00;6.97;;;8.70;99.90;;;;;;4770936;30;20575;-68
2023/04/17 02:10:48;;;;;;;10.70;6.97;;;8.60;99.90;;;;;;4776815;30;20440;-69
2023/04/17 02:13:15;;;;;;;10.48;7.60;;;8.60;99.90;;;;;;4769552;30;20047;-68
2023/04/17 02:15:42;;;;;;;11.07;7.38;;;8.70;99.90;;;;;;4782800;29;20055;-68
2023/04/17 02:18:10;;;;;;;12.63;6.72;;;8.70;99.90;;;;;;4762802;30;20446;-68
2023/04/17 02:20:37;;;;;;;11.15;7.10;;;8.60;99.90;;;;;;4758391;30;20262;-68
2023/04/17 02:23:05;;;;;;;10.43;7.18;;;8.60;99.90;;;;;;4766283;30;20040;-68
2023/04/17 02:25:33;;;;;;;10.93;7.10;;;8.60;99.90;;;;;;4765749;30;20044;-68
2023/04/17 02:28:02;;;;;;;11.48;7.50;;;8.60;99.90;;;;;;4764882;30;20048;-68
2023/04/17 02:30:29;;;;;;;9.60;7.30;;;8.50;99.90;;;;;;4757867;30;20048;-68
2023/04/17 02:32:57;;;;;;;10.88;7.05;;;8.50;99.90;;;;;;4764621;30;20118;-68
2023/04/17 02:35:27;;;;;;;14.25;7.50;;;8.50;99.90;;;;;;4767459;30;20048;-68
2023/04/17 02:37:56;;;;;;;10.50;7.47;;;8.50;99.90;;;;;;4776007;30;20456;-68
2023/04/17 02:40:23;;;;;;;10.52;7.20;;;8.60;99.90;;;;;;4751335;30;20105;-67
2023/04/17 02:42:57;;;;;;;10.80;6.90;;;8.50;99.90;;;;;;4745307;30;20048;-68
2023/04/17 02:45:25;;;;;;;11.05;7.15;;;8.50;99.90;;;;;;4764248;30;20098;-68
2023/04/17 02:47:53;;;;;;;13.30;7.07;;;8.50;99.90;;;;;;4751505;30;20044;-68
2023/04/17 02:50:20;;;;;;;12.10;7.30;;;8.50;99.90;;;;;;4757673;30;20068;-66
2023/04/17 02:53:01;;;;;;;9.48;6.70;;;8.50;99.90;;;;;;4772200;30;20079;-68
2023/04/17 02:55:28;;;;;;;12.38;7.22;;;8.50;99.90;;;;;;4757824;30;20170;-68
2023/04/17 02:57:55;;;;;;;13.85;7.75;;;8.50;99.90;;;;;;4749970;30;20051;-68
2023/04/17 03:00:23;;;;;;;9.80;6.80;;;8.50;99.90;;;;;;4759650;30;20062;-68
2023/04/17 03:02:51;;;;;;;9.85;6.70;;;8.50;99.90;;;;;;4763036;30;20044;-68
2023/04/17 03:05:22;;;;;;;10.73;7.43;;;8.50;99.90;;;;;;4749154;30;20048;-68
2023/04/17 03:07:51;;;;;;;10.35;7.55;;;8.50;99.90;;;;;;4770918;30;20071;-68
2023/04/17 03:10:18;;;;;;;9.90;7.05;;;8.50;99.90;;;;;;4765892;30;20060;-67
2023/04/17 03:12:46;;;;;;;12.10;7.55;;;8.50;99.90;;;;;;4761579;30;20059;-68
2023/04/17 03:15:13;;;;;;;11.30;8.00;;;8.50;99.90;;;;;;4754720;30;20048;-68
2023/04/17 03:17:41;;;;;;;10.38;7.53;;;8.50;99.90;;;;;;4741683;30;20528;-68
2023/04/17 03:20:09;;;;;;;11.35;7.25;;;8.50;99.90;;;;;;4755211;30;20171;-67
2023/04/17 03:22:36;;;;;;;9.60;7.07;;;8.50;99.90;;;;;;4752421;30;20538;-67
2023/04/17 03:25:05;;;;;;;9.90;7.35;;;8.50;99.90;;;;;;4759295;30;20499;-67
2023/04/17 03:27:46;;;;;;;10.80;7.45;;;8.50;99.90;;;;;;4777805;30;20048;-67
2023/04/17 03:30:15;;;;;;;11.10;7.47;;;8.60;99.90;;;;;;4780352;30;20582;-68
2023/04/17 03:32:46;;;;;;;10.80;7.25;;;8.60;99.90;;;;;;4759543;30;20040;-67
2023/04/17 03:35:14;;;;;;;11.25;7.80;;;8.60;99.90;;;;;;4764831;30;20060;-68
2023/04/17 03:37:42;;;;;;;10.15;7.10;;;8.60;99.90;;;;;;4765063;30;20047;-68
2023/04/17 03:40:11;;;;;;;10.95;7.10;;;8.60;99.90;;;;;;4751395;30;20495;-68
2023/04/17 03:42:38;;;;;;;11.82;7.88;;;8.60;99.90;;;;;;4752584;30;20048;-67
2023/04/17 03:45:06;;;;;;;14.63;8.27;;;8.60;99.90;;;;;;4781629;30;20134;-68
2023/04/17 03:47:34;;;;;;;10.43;7.43;;;8.50;99.90;;;;;;4767807;30;20127;-69
2023/04/17 03:50:01;;;;;;;12.32;7.97;;;8.50;99.90;;;;;;4773596;30;20035;-68
2023/04/17 03:52:34;;;;;;;12.68;7.80;;;8.50;99.90;;;;;;4764271;30;20132;-69
2023/04/17 03:55:03;;;;;;;12.07;8.02;;;8.50;99.90;;;;;;4766161;30;20075;-69
2023/04/17 03:57:30;;;;;;;11.60;7.22;;;8.50;99.90;;;;;;4753599;30;20148;-67
2023/04/17 03:59:58;;;;;;;10.95;7.68;;;8.50;99.90;;;;;;4760856;30;20051;-69
2023/04/17 04:02:30;;;;;;;10.70;7.32;;;8.50;99.90;;;;;;4775037;30;20480;-69
2023/04/17 04:04:58;;;;;;;10.63;7.05;;;8.50;99.90;;;;;;4742581;30;20086;-68
2023/04/17 04:07:25;;;;;;;11.88;7.57;;;8.60;99.90;;;;;;4763746;30;20191;-69
2023/04/17 04:09:53;;;;;;;9.85;6.80;;;8.60;99.90;;;;;;4762743;30;20628;-66
2023/04/17 04:12:21;;;;;;;13.50;7.63;;;8.60;99.90;;;;;;4765837;30;20058;-69
2023/04/17 04:14:49;;;;;;;11.27;7.38;;;8.60;99.90;;;;;;4765652;30;20043;-68
2023/04/17 04:17:16;;;;;;;12.43;6.93;;;8.60;99.90;;;;;;4764774;30;20393;-69
2023/04/17 04:19:45;;;;;;;9.98;7.20;;;8.60;99.90;;;;;;4766060;30;20448;-68
2023/04/17 04:22:12;;;;;;;10.50;6.90;;;8.60;99.90;;;;;;4744705;30;20051;-68
2023/04/17 04:24:46;;;;;;;11.50;6.47;;;8.60;99.90;;;;;;4748457;30;20412;-69
2023/04/17 04:27:17;;;;;;;10.60;6.47;;;8.70;99.90;;;;;;4748422;30;20102;-67
2023/04/17 04:29:48;;;;;;;9.85;7.07;;;8.70;99.90;;;;;;4760250;30;20476;-67
2023/04/17 04:32:18;;;;;;;10.52;7.22;;;8.70;99.90;;;;;;4750300;30;20575;-68
2023/04/17 04:34:46;;;;;;;10.35;6.90;;;8.70;99.90;;;;;;4751344;30;20379;-68
2023/04/17 04:37:14;;;;;;;10.23;6.57;;;8.70;99.90;;;;;;4769847;30;20580;-68
2023/04/17 04:39:46;;;;;;;13.43;6.80;;;8.70;99.90;;;;;;4760916;30;20047;-67
2023/04/17 04:42:20;;;;;;;11.52;7.15;;;8.70;99.90;;;;;;4758214;30;20140;-70
2023/04/17 04:44:56;;;;;;;11.55;7.10;;;8.80;99.90;;;;;;4756272;30;20143;-68
2023/04/17 04:47:27;;;;;;;13.02;8.02;;;8.80;99.90;;;;;;4744192;30;20146;-68
2023/04/17 04:49:54;;;;;;;10.25;6.30;;;8.80;99.90;;;;;;4759384;30;20135;-69
2023/04/17 04:52:22;;;;;;;11.82;7.30;;;8.90;99.90;;;;;;4748465;30;20085;-68
2023/04/17 04:54:53;;;;;;;10.18;7.07;;;8.90;99.90;;;;;;4766360;30;20480;-69
2023/04/17 04:57:20;;;;;;;9.57;6.47;;;8.90;99.90;;;;;;4780395;30;20050;-68
2023/04/17 04:59:51;;;;;;;11.75;7.28;;;8.90;99.90;;;;;;4781037;30;20109;-68
2023/04/17 05:02:27;;;;;;;12.65;8.75;;;8.90;99.90;;;;;;4781007;30;20521;-67
2023/04/17 05:04:56;;;;;;;10.88;7.45;;;9.00;99.90;;;;;;4781040;30;20517;-68
2023/04/17 05:07:24;;;;;;;11.10;7.25;;;9.00;99.90;;;;;;4780840;30;20052;-69
2023/04/17 05:09:52;;;;;;;14.63;7.80;;;8.90;99.90;;;;;;4780465;30;20044;-68
2023/04/17 05:12:20;;;;;;;9.40;6.82;;;9.00;99.90;;;;;;4766894;30;20396;-68
2023/04/17 05:14:48;;;;;;;10.43;6.70;;;9.00;99.90;;;;;;4775090;30;20153;-68
2023/04/17 05:17:18;;;;;;;12.18;7.53;;;9.00;99.90;;;;;;4766530;30;20480;-68
2023/04/17 05:19:45;;;;;;;12.30;6.82;;;9.00;99.90;;;;;;4762816;30;20105;-67
2023/04/17 05:22:13;;;;;;;12.13;7.10;;;9.10;99.90;;;;;;4762679;30;20419;-69
2023/04/17 05:24:56;;;;;;;11.18;7.28;;;9.10;99.90;;;;;;4750387;30;20052;-67
2023/04/17 05:27:26;;;;;;;10.65;7.15;;;9.20;99.90;;;;;;4762409;30;20043;-67
2023/04/17 05:29:54;;;;;;;15.85;9.48;;;9.30;99.90;;;;;;4774399;30;20048;-68
2023/04/17 05:32:21;;;;;;;10.15;7.18;;;9.30;99.90;;;;;;4763632;30;20056;-67
2023/04/17 05:34:53;;;;;;;9.88;6.95;;;9.30;99.90;;;;;;4764857;30;20497;-68
2023/04/17 05:37:24;;;;;;;10.03;6.73;;;9.30;99.90;;;;;;4779727;30;20541;-69
2023/04/17 05:39:51;;;;;;;11.48;7.15;;;9.40;99.90;;;;;;4762296;30;20357;-69
2023/04/17 05:42:19;;;;;;;13.25;7.53;;;9.30;99.90;;;;;;4761924;30;20516;-68
2023/04/17 05:44:46;;;;;;;11.75;7.00;;;9.40;99.90;;;;;;4763263;30;20522;-68
2023/04/17 05:47:13;;;;;;;11.00;7.50;;;9.40;99.90;;;;;;4753921;30;20516;-68
2023/04/17 05:49:42;;;;;;;14.02;6.82;;;9.30;99.90;;;;;;4766092;30;20504;-68
2023/04/17 05:52:10;;;;;;;13.35;7.57;;;9.40;99.90;;;;;;4779207;30;20484;-68
2023/04/17 05:54:41;;;;;;;;;;;9.40;99.90;;;;;;4757024;30;20513;-68
2023/04/17 05:57:09;;;;;;;10.35;7.03;;;9.40;99.90;;;;;;4777109;30;20024;-68
2023/04/17 05:59:37;;;;;;;10.65;6.70;;;9.40;99.90;;;;;;4765388;30;20491;-69
2023/04/17 06:02:06;;;;;;;11.65;6.40;;;9.50;99.90;;;;;;4763671;30;20468;-68
2023/04/17 06:04:34;;;;;;;10.10;7.28;;;9.50;99.90;;;;;;4778673;30;20563;-68
2023/04/17 06:07:04;;;;;;;11.15;6.80;;;9.60;99.90;;;;;;4764650;30;20052;-68
2023/04/17 06:09:33;;;;;;;15.68;7.30;;;9.70;99.90;;;;;;4772164;30;20054;-69
2023/04/17 06:12:00;;;;;;;9.88;7.07;;;9.80;99.90;;;;;;4764676;30;20054;-69
2023/04/17 06:14:27;;;;;;;11.23;6.90;;;9.80;99.90;;;;;;4779210;30;20526;-69
2023/04/17 06:16:55;;;;;;;11.52;7.07;;;10.00;99.90;;;;;;4759008;30;20041;-69
2023/04/17 06:19:23;;;;;;;12.50;6.85;;;10.00;99.90;;;;;;4762936;30;20179;-69
2023/04/17 06:21:50;;;;;;;13.38;6.53;;;10.00;99.90;;;;;;4748398;30;20047;-67
2023/04/17 06:24:18;;;;;;;9.73;6.97;;;10.10;99.90;;;;;;4761638;30;20067;-67
2023/04/17 06:26:47;;;;;;;10.10;7.28;;;10.10;99.90;;;;;;4760433;30;20066;-69
2023/04/17 06:29:14;;;;;;;9.65;7.03;;;10.10;99.90;;;;;;4764698;30;20123;-68
2023/04/17 06:31:43;;;;;;;10.98;7.28;;;10.10;99.90;;;;;;4761407;30;20041;-68
2023/04/17 06:34:11;;;;;;;10.27;6.47;;;10.10;99.90;;;;;;4777327;30;20091;-67
2023/04/17 06:36:42;;;;;;;9.02;6.28;;;10.20;99.90;;;;;;4778841;30;20047;-68
2023/04/17 06:39:09;;;;;;;10.88;6.68;;;10.30;99.90;;;;;;4761985;30;20058;-68
2023/04/17 06:41:37;;;;;;;12.27;7.22;;;10.40;99.90;;;;;;4751738;30;20101;-66
2023/04/17 06:44:04;;;;;;;9.48;7.25;;;10.50;99.90;;;;;;4767066;30;20507;-68
2023/04/17 06:46:45;;;;;;;11.20;7.30;;;10.50;99.90;;;;;;4767763;30;20510;-67
2023/04/17 06:49:13;;;;;;;10.40;6.88;;;10.50;99.90;;;;;;4778944;30;20036;-68
2023/04/17 06:51:44;;;;;;;12.45;6.97;;;10.50;99.90;;;;;;4766595;30;20056;-66
2023/04/17 06:54:12;;;;;;;9.20;6.00;;;10.60;99.90;;;;;;4759324;30;20406;-69
2023/04/17 06:56:40;;;;;;;9.93;7.30;;;10.70;99.90;;;;;;4759557;30;20504;-66
2023/04/17 06:59:07;;;;;;;16.52;10.30;;;10.60;99.90;;;;;;4752949;30;20543;-67
2023/04/17 07:01:36;;;;;;;9.95;7.20;;;10.60;99.90;;;;;;4762118;30;20043;-67
2023/04/17 07:04:04;;;;;;;11.77;6.65;;;10.60;99.90;;;;;;4764695;30;20044;-68
2023/04/17 07:06:33;;;;;;;11.98;6.75;;;10.80;99.90;;;;;;4774434;30;20097;-68
2023/04/17 07:09:00;;;;;;;10.70;6.85;;;10.90;99.90;;;;;;4768807;30;20394;-69
2023/04/17 07:11:28;;;;;;;10.27;7.13;;;11.20;99.90;;;;;;4757987;30;20573;-69
2023/04/17 07:13:55;;;;;;;11.25;6.65;;;11.30;99.90;;;;;;4750082;30;20067;-68
2023/04/17 07:16:23;;;;;;;8.88;6.35;;;11.50;99.90;;;;;;4757796;30;20143;-68
2023/04/17 07:18:51;;;;;;;11.65;7.25;;;11.70;99.90;;;;;;4750030;30;20416;-68
2023/04/17 07:21:18;;;;;;;13.55;8.93;;;11.40;99.90;;;;;;4762578;30;20047;-67
2023/04/17 07:23:46;;;;;;;12.40;7.78;;;11.50;99.90;;;;;;4762768;30;20040;-67
2023/04/17 07:26:13;;;;;;;11.63;7.30;;;11.50;99.90;;;;;;4758367;30;20056;-67
2023/04/17 07:28:40;;;;;;;10.73;6.85;;;11.50;99.90;;;;;;4769292;30;20126;-67
2023/04/17 07:31:08;;;;;;;11.45;7.55;;;11.40;99.90;;;;;;4767705;30;20125;-67
2023/04/17 07:33:36;;;;;;;11.48;7.35;;;11.40;99.90;;;;;;4738481;30;20060;-67
2023/04/17 07:36:09;;;;;;;9.95;6.90;;;11.60;99.90;;;;;;4763905;30;20408;-66
2023/04/17 07:38:36;;;;;;;9.10;6.45;;;11.70;99.90;;;;;;4759586;30;20150;-67
2023/04/17 07:41:07;;;;;;;9.68;6.95;;;11.90;99.90;;;;;;4763641;30;20175;-68
2023/04/17 07:43:34;;;;;;;8.82;6.28;;;12.10;99.90;;;;;;4750716;30;20586;-67
2023/04/17 07:46:01;;;;;;;10.38;6.95;;;12.10;99.90;;;;;;4759484;30;20052;-67
2023/04/17 07:48:29;;;;;;;10.15;6.35;;;12.20;99.90;;;;;;4758619;30;20074;-67
2023/04/17 07:51:00;;;;;;;14.35;8.00;;;12.20;99.90;;;;;;4760450;30;20143;-67
2023/04/17 07:53:28;;;;;;;8.95;6.05;;;12.40;99.90;;;;;;4765968;30;20539;-67
2023/04/17 07:55:55;;;;;;;11.25;7.53;;;12.60;99.90;;;;;;4738060;30;20151;-68
2023/04/17 07:58:22;;;;;;;8.80;6.22;;;12.60;99.90;;;;;;4762052;30;20079;-67
2023/04/17 08:00:50;;;;;;;12.15;7.18;;;12.60;99.90;;;;;;4761459;30;20047;-66
2023/04/17 08:03:20;;;;;;;9.95;7.30;;;12.70;99.90;;;;;;4763818;30;20051;-67
2023/04/17 08:05:50;;;;;;;10.88;7.60;;;12.70;99.90;;;;;;4758165;30;20079;-68
2023/04/17 08:08:18;;;;;;;10.13;6.00;;;12.60;99.90;;;;;;4759926;30;20048;-67
2023/04/17 08:10:46;;;;;;;10.20;6.43;;;12.50;99.90;;;;;;4761987;30;20052;-67
2023/04/17 08:13:13;;;;;;;9.23;6.32;;;12.40;99.90;;;;;;4756700;30;20078;-67
2023/04/17 08:15:41;;;;;;;13.52;9.15;;;12.40;99.90;;;;;;4754317;30;20636;-68
2023/04/17 08:18:08;;;;;;;12.45;7.00;;;12.30;99.90;;;;;;4760498;30;20052;-67
2023/04/17 08:20:36;;;;;;;13.50;7.32;;;12.30;99.90;;;;;;4755232;30;20304;-66
2023/04/17 08:23:04;;;;;;;8.77;5.90;;;12.20;99.90;;;;;;4753784;30;20042;-66
2023/04/17 08:25:32;;;;;;;7.38;5.88;;;12.20;99.90;;;;;;4756849;30;20051;-65
2023/04/17 08:27:59;;;;;;;9.30;6.53;;;11.90;99.90;;;;;;4753411;30;20056;-67
2023/04/17 08:30:26;;;;;;;9.35;5.55;;;11.90;99.90;;;;;;4764174;30;20522;-66
2023/04/17 08:32:56;;;;;;;6.28;4.68;;;12.00;99.90;;;;;;4743084;30;20058;-69
2023/04/17 08:35:25;;;;;;;7.20;5.20;;;12.10;99.90;;;;;;4759467;30;20427;-67
2023/04/17 08:37:54;;;;;;;10.25;5.68;;;12.10;99.90;;;;;;4749077;30;20152;-68
2023/04/17 08:40:23;;;;;;;9.15;5.68;;;12.20;99.90;;;;;;4750130;30;20147;-67
2023/04/17 08:42:52;;;;;;;8.15;6.13;;;12.20;99.90;;;;;;4760883;30;20606;-67
2023/04/17 08:45:23;;;;;;;8.63;5.90;;;12.30;99.90;;;;;;4752907;30;20059;-69
2023/04/17 08:47:50;;;;;;;8.15;5.63;;;12.50;99.90;;;;;;4753004;30;20571;-67
2023/04/17 08:50:20;;;;;;;6.75;4.97;;;12.40;99.90;;;;;;4759208;30;20480;-67
2023/04/17 08:52:50;;;;;;;8.18;6.18;;;12.40;99.90;;;;;;4757723;30;20139;-70
2023/04/17 08:55:22;;;;;;;6.93;5.28;;;12.40;99.90;;;;;;4759556;30;20130;-67
2023/04/17 08:57:57;;;;;;;8.27;5.78;;;12.50;99.90;;;;;;4755121;30;20615;-67
2023/04/17 09:00:30;;;;;;;6.90;5.20;;;12.70;99.90;;;;;;4745399;30;20047;-67
2023/04/17 09:02:58;;;;;;;8.90;5.60;;;12.80;99.90;;;;;;4755458;30;20134;-66
2023/04/17 09:05:35;;;;;;;10.00;6.55;;;12.70;99.90;;;;;;4754980;30;20300;-68
2023/04/17 09:08:19;;;;;;;7.20;4.65;;;12.90;99.90;;;;;;4754074;30;20488;-69
2023/04/17 09:10:52;;;;;;;6.13;4.88;;;13.10;99.90;;;;;;4757535;30;20182;-67
2023/04/17 09:13:28;;;;;;;10.55;6.50;;;13.00;99.90;;;;;;4753729;30;20063;-67
2023/04/17 09:16:07;;;;;;;10.32;5.80;;;13.10;99.90;;;;;;4761007;30;20092;-68
2023/04/17 09:18:36;;;;;;;13.75;9.13;;;13.30;99.90;;;;;;4759513;30;20050;-67
2023/04/17 09:21:04;;;;;;;7.05;5.25;;;13.40;99.90;;;;;;4751444;30;20040;-67
2023/04/17 09:23:49;;;;;;;7.95;5.60;;;13.40;99.90;;;;;;4758888;30;20048;-67
2023/04/17 09:26:23;;;;;;;8.32;5.88;;;13.50;99.90;;;;;;4755815;30;20726;-67
2023/04/17 09:29:09;;;;;;;6.60;4.75;;;13.60;99.90;;;;;;4761065;30;20076;-67
2023/04/17 09:31:41;;;;;;;4.90;3.85;;;13.90;99.90;;;;;;4746598;30;20068;-68
2023/04/17 09:34:13;;;;;;;5.68;4.10;;;13.90;99.90;;;;;;4761031;30;20066;-68
2023/04/17 09:36:41;;;;;;;;;;;13.80;99.90;;;;;;4759650;30;20048;-67
2023/04/17 09:39:22;;;;;;;7.75;5.47;;;13.90;99.90;;;;;;4755257;30;19925;-67
2023/04/17 09:42:00;;;;;;;6.97;4.23;;;14.20;99.90;;;;;;4763559;30;20051;-68
2023/04/17 09:44:29;;;;;;;7.97;5.25;;;14.40;99.90;;;;;;4759588;30;20484;-67
2023/04/17 09:46:59;;;;;;;6.57;4.43;;;14.50;99.90;;;;;;4756389;30;20125;-67
2023/04/17 09:49:39;;;;;;;5.30;4.10;;;14.70;99.90;;;;;;4753726;30;20063;-67
2023/04/17 09:52:06;;;;;;;5.22;3.85;;;14.80;99.90;;;;;;4761561;30;20044;-66
2023/04/17 09:54:36;;;;;;;5.30;3.97;;;14.60;99.90;;;;;;4743229;30;20423;-67
2023/04/17 09:57:08;;;;;;;8.45;4.70;;;14.60;99.90;;;;;;4759138;30;20040;-67
2023/04/17 09:59:40;;;;;;;5.60;4.30;;;14.60;99.90;;;;;;4749778;30;20150;-67
2023/04/17 10:02:10;;;;;;;6.47;3.80;;;14.80;99.90;;;;;;4735661;30;20387;-69
2023/04/17 10:04:45;;;;;;;5.85;4.30;;;15.00;99.90;;;;;;4761850;30;20344;-66
2023/04/17 10:07:13;;;;;;;6.35;4.78;;;15.10;99.90;;;;;;4741631;30;20431;-66
2023/04/17 10:09:42;;;;;;;4.70;3.67;;;15.00;99.90;;;;;;4747422;30;20052;-65
2023/04/17 10:12:15;;;;;;;4.50;3.65;;;15.00;99.90;;;;;;4747224;30;20573;-66
2023/04/17 10:14:47;;;;;;;4.97;3.55;;;14.90;99.90;;;;;;4751962;30;20445;-67
2023/04/17 10:17:32;;;;;;;4.65;3.70;;;14.90;99.90;;;;;;4764339;30;20383;-69
2023/04/17 10:20:22;;;;;;;5.78;4.00;;;14.80;99.90;;;;;;4764238;30;20043;-67
2023/04/17 10:22:54;;;;;;;6.82;4.20;;;14.80;99.90;;;;;;4755344;30;20044;-67
2023/04/17 10:25:29;;;;;;;7.30;5.07;;;14.70;99.90;;;;;;4752617;30;20125;-66
2023/04/17 10:27:59;;;;;;;4.78;3.63;;;14.60;99.90;;;;;;4763131;30;20465;-67
2023/04/17 10:30:52;;;;;;;5.25;3.80;;;14.60;99.90;;;;;;4759841;30;20416;-68
2023/04/17 10:33:23;;;;;;;7.63;4.60;;;14.40;99.90;;;;;;4767359;30;20040;-67
2023/04/17 10:35:52;;;;;;;6.25;4.50;;;14.60;99.90;;;;;;4756516;30;20048;-67
2023/04/17 10:38:33;;;;;;;6.28;4.50;;;14.60;99.90;;;;;;4767815;30;20040;-67
2023/04/17 10:41:08;;;;;;;6.60;5.00;;;14.70;99.90;;;;;;4761743;30;20079;-67
2023/04/17 10:43:40;;;;;;;5.80;3.88;;;14.70;99.90;;;;;;4758605;30;20070;-67
2023/04/17 10:46:11;;;;;;;5.70;4.40;;;14.80;99.90;;;;;;4753532;30;20343;-69
2023/04/17 10:48:49;;;;;;;5.50;4.10;;;15.00;99.90;;;;;;4758644;30;20327;-67
2023/04/17 10:51:22;;;;;;;6.03;3.95;;;15.20;99.90;;;;;;4761637;30;20056;-67
2023/04/17 10:53:54;;;;;;;5.68;4.20;;;15.10;99.90;;;;;;4765420;30;20120;-66
2023/04/17 10:56:31;;;;;;;;;;;15.00;99.90;;;;;;4767037;30;20067;-67
2023/04/17 10:58:59;;;;;;;6.57;3.90;;;14.90;99.90;;;;;;4762373;30;19943;-66
2023/04/17 11:01:46;;;;;;;4.10;3.22;;;14.90;99.90;;;;;;4765011;30;20105;-66
2023/04/17 11:04:25;;;;;;;5.78;4.10;;;14.60;99.90;;;;;;4763068;30;20048;-66
2023/04/17 11:06:54;;;;;;;6.75;4.38;;;14.80;99.90;;;;;;4760934;30;20063;-67
2023/04/17 11:09:25;;;;;;;5.25;3.70;;;15.00;99.90;;;;;;4767666;30;20542;-66
2023/04/17 11:11:53;;;;;;;4.80;4.00;;;15.40;99.90;;;;;;4768683;30;20624;-67
2023/04/17 11:14:22;;;;;;;6.05;4.63;;;15.60;99.90;;;;;;4764317;30;20051;-67
2023/04/17 11:16:50;;;;;;;6.55;3.92;;;15.70;99.90;;;;;;4759916;30;20044;-69
2023/04/17 11:19:20;;;;;;;4.95;4.20;;;15.90;99.90;;;;;;4765834;30;20043;-66
2023/04/17 11:21:52;;;;;;;4.95;4.00;;;15.90;99.90;;;;;;4763079;30;20044;-68
2023/04/17 11:24:23;;;;;;;6.00;4.03;;;15.90;99.90;;;;;;4765764;30;20051;-66
2023/04/17 11:26:50;;;;;;;4.72;3.78;;;15.80;99.90;;;;;;4758752;30;20510;-66
2023/04/17 11:29:19;;;;;;;4.65;4.03;;;15.60;99.90;;;;;;4764376;30;20071;-67
2023/04/17 11:31:51;;;;;;;4.70;3.88;;;15.30;99.90;;;;;;4765393;30;20056;-66
2023/04/17 11:34:19;;;;;;;4.55;3.88;;;15.60;99.90;;;;;;4757711;30;20115;-66
2023/04/17 11:36:53;;;;;;;4.38;3.65;;;15.90;99.90;;;;;;4752641;30;20488;-66
2023/04/17 11:39:22;;;;;;;4.57;3.75;;;16.30;99.90;;;;;;4758682;30;20413;-66
2023/04/17 11:41:50;;;;;;;4.53;3.72;;;16.60;99.90;;;;;;4755522;30;20412;-66
2023/04/17 11:44:19;;;;;;;4.90;3.80;;;17.00;99.90;;;;;;4755778;30;20054;-68
2023/04/17 11:46:51;;;;;;;5.85;3.72;;;17.00;99.90;;;;;;4761309;30;20048;-66
2023/04/17 11:49:32;;;;;;;4.07;3.67;;;16.90;99.90;;;;;;4762611;30;20139;-67
2023/04/17 11:52:00;;;;;;;4.65;3.90;;;16.90;99.90;;;;;;4750186;30;20088;-66
2023/04/17 11:54:35;;;;;;;4.60;4.03;;;16.90;99.90;;;;;;4755940;30;21969;-68
2023/04/17 11:57:09;;;;;;;5.15;4.10;;;16.60;99.90;;;;;;4756701;30;20040;-68
2023/04/17 11:59:38;;;;;;;4.53;3.95;;;16.30;99.90;;;;;;4763389;30;20065;-68
2023/04/17 12:02:07;;;;;;;4.53;3.85;;;16.10;99.90;;;;;;4762716;30;20039;-68
2023/04/17 12:04:36;;;;;;;4.97;3.88;;;15.80;99.90;;;;;;4756768;30;20469;-68
2023/04/17 12:07:05;;;;;;;4.05;3.60;;;15.80;99.90;;;;;;4759978;30;20051;-65
2023/04/17 12:09:34;;;;;;;3.83;3.42;;;15.90;99.90;;;;;;4757831;30;20446;-69
2023/04/17 12:12:06;;;;;;;4.15;3.60;;;15.70;99.90;;;;;;4757947;30;20071;-66
2023/04/17 12:14:34;;;;;;;4.35;3.88;;;15.60;99.90;;;;;;4757548;30;20050;-67
2023/04/17 12:17:01;;;;;;;4.57;3.50;;;15.60;99.90;;;;;;4763094;30;20105;-66
2023/04/17 12:19:30;;;;;;;7.13;4.57;;;15.90;99.90;;;;;;4777342;30;20079;-68
2023/04/17 12:21:58;;;;;;;5.43;3.65;;;15.90;99.90;;;;;;4766280;30;20074;-67
2023/04/17 12:24:26;;;;;;;3.45;3.05;;;15.90;99.90;;;;;;4764355;30;20135;-67
2023/04/17 12:26:53;;;;;;;4.55;3.10;;;15.80;99.90;;;;;;4767243;30;20326;-66
2023/04/17 12:29:21;;;;;;;3.67;3.20;;;15.90;99.90;;;;;;4757678;30;20056;-67
2023/04/17 12:32:02;;;;;;;3.30;3.00;;;16.00;99.90;;;;;;4765790;30;20052;-66
2023/04/17 12:34:30;;;;;;;3.90;3.47;;;15.90;99.90;;;;;;4758579;30;20051;-66
2023/04/17 12:36:57;;;;;;;3.65;3.10;;;15.90;99.90;;;;;;4764591;30;20047;-65
2023/04/17 12:39:25;;;;;;;4.57;3.20;;;16.00;99.90;;;;;;4765901;30;20131;-67
2023/04/17 12:41:52;;;;;;;3.80;3.30;;;16.00;99.90;;;;;;4765579;30;20384;-67
2023/04/17 12:44:19;;;;;;;4.68;3.80;;;16.00;99.90;;;;;;4763798;30;20485;-68
2023/04/17 12:46:46;;;;;;;4.97;4.22;;;15.90;99.90;;;;;;4755663;30;20048;-66
2023/04/17 12:49:14;;;;;;;5.53;3.97;;;16.10;99.90;;;;;;4762554;30;20526;-72
2023/04/17 12:51:41;;;;;;;3.78;3.33;;;16.50;99.90;;;;;;4759699;30;20070;-66
2023/04/17 12:54:09;;;;;;;4.82;3.42;;;17.50;99.90;;;;;;4756233;30;20056;-67
2023/04/17 12:56:36;;;;;;;4.50;3.80;;;18.30;99.90;;;;;;4754397;30;20117;-68
2023/04/17 12:59:04;;;;;;;4.03;3.63;;;19.30;99.90;;;;;;4756221;30;20040;-67
2023/04/17 13:01:31;;;;;;;4.20;3.42;;;19.90;99.90;;;;;;4754752;30;20642;-67